createdAt,value
2018-07-16T04:10:10.402Z,16.89
2018-07-16T04:10:35.902Z,16.83
2018-07-16T04:11:01.359Z,16.9
2018-07-16T04:11:26.882Z,16.89
2018-07-16T04:11:52.269Z,16.83
2018-07-16T04:12:17.827Z,16.84
2018-07-16T04:12:43.333Z,16.89
2018-07-16T04:13:08.810Z,16.89
2018-07-16T04:13:34.243Z,16.86
2018-07-16T04:13:59.743Z,16.9
2018-07-16T04:14:25.236Z,16.89
2018-07-16T04:14:50.745Z,16.9
2018-07-16T04:15:16.223Z,16.89
2018-07-16T04:15:41.661Z,16.84
2018-07-16T04:16:07.121Z,16.91
2018-07-16T04:16:32.542Z,16.89
2018-07-16T04:16:58.020Z,16.86
2018-07-16T04:17:23.592Z,16.87
2018-07-16T04:17:49.074Z,16.9
2018-07-16T04:18:14.533Z,16.79
2018-07-16T04:18:39.913Z,16.89
2018-07-16T04:19:05.390Z,16.84
2018-07-16T04:19:30.909Z,16.84
2018-07-16T04:19:56.364Z,16.86
2018-07-16T04:20:21.825Z,16.87
2018-07-16T04:20:47.402Z,16.86
2018-07-16T04:21:12.804Z,16.89
2018-07-16T04:21:38.363Z,16.86
2018-07-16T04:22:03.811Z,16.87
2018-07-16T04:22:29.232Z,16.96
2018-07-16T04:22:54.686Z,16.94
2018-07-16T04:23:20.194Z,16.91
2018-07-16T04:23:45.629Z,16.9
2018-07-16T04:24:11.080Z,16.91
2018-07-16T04:24:36.588Z,16.93
2018-07-16T04:25:02.031Z,16.96
2018-07-16T04:25:27.447Z,16.93
2018-07-16T04:25:52.964Z,16.91
2018-07-16T04:26:18.388Z,16.9
2018-07-16T04:26:43.821Z,16.97
2018-07-16T04:27:09.275Z,16.96
2018-07-16T04:27:34.767Z,16.94
2018-07-16T04:28:00.269Z,16.94
2018-07-16T04:28:25.750Z,16.96
2018-07-16T04:28:51.236Z,16.97
2018-07-16T04:29:16.627Z,17.02
2018-07-16T04:29:42.106Z,17.01
2018-07-16T04:30:07.600Z,17.01
2018-07-16T04:30:33.107Z,16.94
2018-07-16T04:30:58.557Z,17.02
2018-07-16T04:31:24.048Z,17.02
2018-07-16T04:31:49.518Z,17.05
2018-07-16T04:32:15.046Z,17.04
2018-07-16T04:32:40.507Z,17.04
2018-07-16T04:33:05.974Z,17.09
2018-07-16T04:33:31.456Z,17.04
2018-07-16T04:33:56.929Z,17.06
2018-07-16T04:34:22.388Z,17.16
2018-07-16T04:34:47.873Z,17.09
2018-07-16T04:35:13.274Z,17.14
2018-07-16T04:35:38.773Z,17.16
2018-07-16T04:36:04.296Z,17.19
2018-07-16T04:36:29.720Z,17.16
2018-07-16T04:36:55.214Z,17.24
2018-07-16T04:37:20.766Z,17.24
2018-07-16T04:37:46.234Z,17.34
2018-07-16T04:38:11.722Z,17.27
2018-07-16T04:38:37.156Z,17.36
2018-07-16T04:39:40.838Z,17.34
2018-07-16T04:40:06.329Z,17.34
2018-07-16T04:40:31.826Z,17.42
2018-07-16T04:40:57.297Z,17.51
2018-07-16T04:41:22.800Z,17.48
2018-07-16T04:41:48.293Z,17.68
2018-07-16T04:42:13.773Z,17.74
2018-07-16T04:42:39.292Z,17.71
2018-07-16T04:43:04.774Z,17.8
2018-07-16T04:43:30.290Z,17.89
2018-07-16T04:43:55.792Z,17.95
2018-07-16T04:44:21.293Z,18.13
2018-07-16T04:44:46.813Z,18.19
2018-07-16T04:45:12.336Z,18.18
2018-07-16T04:45:37.804Z,18.33
2018-07-16T04:46:03.303Z,18.47
2018-07-16T04:46:28.803Z,18.58
2018-07-16T04:46:54.336Z,18.58
2018-07-16T04:47:19.812Z,18.65
2018-07-16T04:47:45.295Z,18.7
2018-07-16T04:48:10.806Z,18.88
2018-07-16T04:48:36.300Z,18.98
2018-07-16T04:49:01.821Z,18.98
2018-07-16T04:49:27.269Z,19.04
2018-07-16T04:49:52.786Z,19.16
2018-07-16T04:50:18.283Z,19.19
2018-07-16T04:50:43.776Z,19.31
2018-07-16T04:51:09.249Z,19.37
2018-07-16T04:51:34.727Z,19.36
2018-07-16T04:52:00.244Z,19.39
2018-07-16T04:52:25.749Z,19.47
2018-07-16T04:52:51.242Z,19.49
2018-07-16T04:53:16.754Z,19.52
2018-07-16T04:53:42.236Z,19.62
2018-07-16T04:54:07.708Z,19.58
2018-07-16T04:54:33.190Z,19.7
2018-07-16T04:54:58.695Z,19.74
2018-07-16T04:55:24.193Z,19.69
2018-07-16T04:55:49.690Z,19.81
2018-07-16T04:56:15.197Z,19.84
2018-07-16T04:56:40.698Z,19.95
2018-07-16T04:57:06.204Z,19.89
2018-07-16T04:57:31.668Z,20.03
2018-07-16T04:57:57.228Z,20.04
2018-07-16T04:58:22.727Z,20.06
2018-07-16T04:58:48.195Z,20.09
2018-07-16T04:59:13.682Z,20.02
2018-07-16T04:59:39.211Z,20.1
2018-07-16T05:00:04.716Z,20.14
2018-07-16T05:01:14.455Z,20.21
2018-07-16T05:01:39.950Z,20.18
2018-07-16T05:02:05.453Z,20.21
2018-07-16T05:02:30.939Z,20.19
2018-07-16T05:02:56.452Z,20.24
2018-07-16T05:03:22.059Z,20.19
2018-07-16T05:03:47.501Z,20.26
2018-07-16T05:04:12.972Z,20.21
2018-07-16T05:05:06.376Z,20.31
2018-07-16T05:05:31.888Z,20.25
2018-07-16T05:05:57.378Z,20.29
2018-07-16T05:06:22.886Z,20.37
2018-07-16T05:06:48.393Z,20.4
2018-07-16T05:07:13.882Z,20.31
2018-07-16T05:07:39.399Z,20.44
2018-07-16T05:08:04.928Z,20.44
2018-07-16T05:08:30.433Z,20.41
2018-07-16T05:08:55.954Z,20.44
2018-07-16T05:09:21.524Z,20.39
2018-07-16T05:09:47.000Z,20.37
2018-07-16T05:10:12.491Z,20.37
2018-07-16T05:10:37.993Z,20.41
2018-07-16T05:11:03.488Z,20.43
2018-07-16T05:11:28.966Z,20.47
2018-07-16T05:11:54.457Z,20.51
2018-07-16T05:12:19.955Z,20.43
2018-07-16T05:12:45.492Z,20.39
2018-07-16T05:13:10.948Z,20.43
2018-07-16T05:13:36.461Z,20.44
2018-07-16T05:14:01.984Z,20.39
2018-07-16T05:14:27.453Z,20.36
2018-07-16T05:14:52.932Z,20.34
2018-07-16T05:15:18.507Z,20.39
2018-07-16T05:15:44.024Z,20.29
2018-07-16T05:16:09.505Z,20.34
2018-07-16T05:16:35.004Z,20.28
2018-07-16T05:17:00.506Z,20.39
2018-07-16T05:17:25.988Z,20.26
2018-07-16T05:17:51.480Z,20.39
2018-07-16T05:18:17.021Z,20.43
2018-07-16T05:18:42.460Z,20.44
2018-07-16T05:19:07.955Z,20.47
2018-07-16T05:19:33.446Z,20.43
2018-07-16T05:19:58.959Z,20.43
2018-07-16T05:20:24.453Z,20.48
2018-07-16T05:21:12.777Z,20.52
2018-07-16T05:21:38.365Z,20.52
2018-07-16T05:22:03.842Z,20.47
2018-07-16T05:22:29.359Z,20.51
2018-07-16T05:22:54.831Z,20.47
2018-07-16T05:23:20.337Z,20.52
2018-07-16T05:23:45.822Z,20.55
2018-07-16T05:24:11.443Z,20.55
2018-07-16T05:24:36.789Z,20.66
2018-07-16T05:25:02.293Z,20.56
2018-07-16T05:25:27.783Z,20.58
2018-07-16T05:25:53.311Z,20.67
2018-07-16T05:26:18.828Z,20.67
2018-07-16T05:26:44.283Z,20.7
2018-07-16T05:27:09.788Z,20.67
2018-07-16T05:27:35.287Z,20.77
2018-07-16T05:28:00.796Z,20.7
2018-07-16T05:28:26.290Z,20.74
2018-07-16T05:28:51.813Z,20.72
2018-07-16T05:29:17.287Z,20.81
2018-07-16T05:29:42.837Z,20.85
2018-07-16T05:30:08.323Z,20.81
2018-07-16T05:30:33.824Z,20.82
2018-07-16T05:30:59.355Z,20.88
2018-07-16T05:31:24.907Z,20.88
2018-07-16T05:31:50.579Z,20.82
2018-07-16T05:32:16.012Z,20.96
2018-07-16T05:32:41.681Z,20.97
2018-07-16T05:33:06.846Z,20.92
2018-07-16T05:33:32.347Z,20.97
2018-07-16T05:33:57.841Z,20.99
2018-07-16T05:34:23.351Z,20.93
2018-07-16T05:34:48.842Z,20.97
2018-07-16T05:35:14.339Z,21
2018-07-16T05:35:39.828Z,21.09
2018-07-16T05:36:05.303Z,21.09
2018-07-16T05:36:30.787Z,21.09
2018-07-16T05:36:56.273Z,21.06
2018-07-16T05:37:21.775Z,21.11
2018-07-16T05:37:47.298Z,21.12
2018-07-16T05:38:12.907Z,21.24
2018-07-16T05:38:38.335Z,21.17
2018-07-16T05:39:03.827Z,21.17
2018-07-16T05:39:29.361Z,21.24
2018-07-16T05:39:54.839Z,21.25
2018-07-16T05:40:20.305Z,21.3
2018-07-16T05:40:45.931Z,21.3
2018-07-16T05:41:11.440Z,21.37
2018-07-16T05:41:36.897Z,21.29
2018-07-16T05:42:02.400Z,21.27
2018-07-16T05:42:27.909Z,21.27
2018-07-16T05:42:53.365Z,21.29
2018-07-16T05:43:18.854Z,21.22
2018-07-16T05:43:44.552Z,21.29
2018-07-16T05:44:10.041Z,21.3
2018-07-16T05:44:35.481Z,21.35
2018-07-16T05:45:00.956Z,21.29
2018-07-16T05:45:26.468Z,21.46
2018-07-16T05:45:51.948Z,21.37
2018-07-16T05:46:17.441Z,21.42
2018-07-16T05:46:42.974Z,21.39
2018-07-16T05:47:08.442Z,21.4
2018-07-16T05:47:33.937Z,21.43
2018-07-16T05:47:59.410Z,21.43
2018-07-16T05:48:24.908Z,21.43
2018-07-16T05:48:50.371Z,21.48
2018-07-16T05:49:15.858Z,21.46
2018-07-16T05:49:41.361Z,21.54
2018-07-16T05:50:06.870Z,21.52
2018-07-16T05:50:32.369Z,21.61
2018-07-16T05:50:57.833Z,21.58
2018-07-16T05:51:23.339Z,21.64
2018-07-16T05:51:48.832Z,21.64
2018-07-16T05:52:14.333Z,21.66
2018-07-16T05:52:39.812Z,21.73
2018-07-16T05:53:05.311Z,21.67
2018-07-16T05:53:30.801Z,21.82
2018-07-16T05:53:56.296Z,21.76
2018-07-16T05:54:21.785Z,21.8
2018-07-16T05:54:47.231Z,21.83
2018-07-16T05:55:12.757Z,21.83
2018-07-16T05:55:38.231Z,21.85
2018-07-16T05:56:03.724Z,21.8
2018-07-16T05:56:29.227Z,21.91
2018-07-16T05:56:54.750Z,21.83
2018-07-16T05:57:20.262Z,21.99
2018-07-16T05:57:45.785Z,21.95
2018-07-16T05:58:11.339Z,22.06
2018-07-16T05:58:36.795Z,22.04
2018-07-16T05:59:02.301Z,22.14
2018-07-16T05:59:27.789Z,22.22
2018-07-16T05:59:53.287Z,22.18
2018-07-16T06:00:18.783Z,22.18
2018-07-16T06:00:44.268Z,22.14
2018-07-16T06:01:09.730Z,22.26
2018-07-16T06:01:35.233Z,22.3
2018-07-16T06:02:00.763Z,22.25
2018-07-16T06:02:26.268Z,22.36
2018-07-16T06:02:51.726Z,22.38
2018-07-16T06:03:17.234Z,22.41
2018-07-16T06:03:42.731Z,22.41
2018-07-16T06:04:08.261Z,22.35
2018-07-16T06:04:33.779Z,22.44
2018-07-16T06:04:59.237Z,22.44
2018-07-16T06:05:24.722Z,22.44
2018-07-16T06:05:50.223Z,22.47
2018-07-16T06:06:15.715Z,22.48
2018-07-16T06:06:41.213Z,22.53
2018-07-16T06:07:06.707Z,22.5
2018-07-16T06:07:32.254Z,22.59
2018-07-16T06:07:57.743Z,22.63
2018-07-16T06:08:23.212Z,22.72
2018-07-16T06:08:48.773Z,22.83
2018-07-16T06:09:14.248Z,22.75
2018-07-16T06:09:39.746Z,22.78
2018-07-16T06:10:05.240Z,22.9
2018-07-16T06:10:30.781Z,22.84
2018-07-16T06:10:56.270Z,22.84
2018-07-16T06:11:22.576Z,23.02
2018-07-16T06:11:48.064Z,22.96
2018-07-16T06:12:13.545Z,23.05
2018-07-16T06:12:39.025Z,23.03
2018-07-16T06:13:04.485Z,23.2
2018-07-16T06:13:29.973Z,23.12
2018-07-16T06:13:55.462Z,23.08
2018-07-16T06:14:21.006Z,23.17
2018-07-16T06:14:46.430Z,23.2
2018-07-16T06:15:11.931Z,23.09
2018-07-16T06:15:37.447Z,23.06
2018-07-16T06:16:02.961Z,23.08
2018-07-16T06:16:28.456Z,23.12
2018-07-16T06:16:53.980Z,23.13
2018-07-16T06:17:19.440Z,23.12
2018-07-16T06:17:44.982Z,23.15
2018-07-16T06:18:10.455Z,23.17
2018-07-16T06:18:35.987Z,23.08
2018-07-16T06:19:01.478Z,23.13
2018-07-16T06:19:27.013Z,23.17
2018-07-16T06:19:52.493Z,23.18
2018-07-16T06:20:17.977Z,23.09
2018-07-16T06:20:43.458Z,23.17
2018-07-16T06:21:08.938Z,23.13
2018-07-16T06:21:34.439Z,23.1
2018-07-16T06:21:59.937Z,23.08
2018-07-16T06:22:25.447Z,23.08
2018-07-16T06:22:50.950Z,23.25
2018-07-16T06:23:16.445Z,23.21
2018-07-16T06:23:41.938Z,23.12
2018-07-16T06:24:07.566Z,23.25
2018-07-16T06:24:32.982Z,23.27
2018-07-16T06:24:58.519Z,23.24
2018-07-16T06:25:24.025Z,23.28
2018-07-16T06:25:49.540Z,23.23
2018-07-16T06:26:15.035Z,23.18
2018-07-16T06:26:40.861Z,23.23
2018-07-16T06:27:06.347Z,23.23
2018-07-16T06:27:31.848Z,23.24
2018-07-16T06:27:57.338Z,23.18
2018-07-16T06:28:22.824Z,23.28
2018-07-16T06:28:48.310Z,23.37
2018-07-16T06:29:36.631Z,23.4
2018-07-16T06:30:02.129Z,23.39
2018-07-16T06:30:27.627Z,23.43
2018-07-16T06:30:53.146Z,23.4
2018-07-16T06:31:18.670Z,23.46
2018-07-16T06:31:44.136Z,23.43
2018-07-16T06:32:09.605Z,23.48
2018-07-16T06:32:35.249Z,23.51
2018-07-16T06:33:00.613Z,23.55
2018-07-16T06:33:26.104Z,23.59
2018-07-16T06:33:51.609Z,23.62
2018-07-16T06:34:17.127Z,23.62
2018-07-16T06:34:42.599Z,23.65
2018-07-16T06:35:08.127Z,23.69
2018-07-16T06:35:33.636Z,23.71
2018-07-16T06:35:59.124Z,23.68
2018-07-16T06:36:24.693Z,23.65
2018-07-16T06:36:50.154Z,23.69
2018-07-16T06:37:15.638Z,23.68
2018-07-16T06:37:41.155Z,23.68
2018-07-16T06:38:06.649Z,23.59
2018-07-16T06:38:32.155Z,23.63
2018-07-16T06:38:57.647Z,23.55
2018-07-16T06:39:23.179Z,23.66
2018-07-16T06:39:48.705Z,23.59
2018-07-16T06:40:14.264Z,23.58
2018-07-16T06:40:39.911Z,23.65
2018-07-16T06:41:05.670Z,23.66
2018-07-16T06:41:31.030Z,23.63
2018-07-16T06:41:56.187Z,23.66
2018-07-16T06:42:21.663Z,23.73
2018-07-16T06:42:47.136Z,23.71
2018-07-16T06:43:12.673Z,23.78
2018-07-16T06:43:38.189Z,23.81
2018-07-16T06:44:03.680Z,23.84
2018-07-16T06:44:29.193Z,23.81
2018-07-16T06:44:54.701Z,23.84
2018-07-16T06:45:20.181Z,23.92
2018-07-16T06:45:45.655Z,23.87
2018-07-16T06:46:11.194Z,23.88
2018-07-16T06:46:36.681Z,23.95
2018-07-16T06:47:02.165Z,23.93
2018-07-16T06:47:27.644Z,23.98
2018-07-16T06:47:53.254Z,23.95
2018-07-16T06:48:18.698Z,24.02
2018-07-16T06:48:44.163Z,24.03
2018-07-16T06:49:09.661Z,24.16
2018-07-16T06:49:35.150Z,24.06
2018-07-16T06:50:00.626Z,24.01
2018-07-16T06:50:26.122Z,24.03
2018-07-16T06:50:51.592Z,24.03
2018-07-16T06:51:17.090Z,24.03
2018-07-16T06:51:42.599Z,24.05
2018-07-16T06:52:08.082Z,24.05
2018-07-16T06:52:33.580Z,23.99
2018-07-16T06:52:59.100Z,24.08
2018-07-16T06:53:24.582Z,24.03
2018-07-16T06:53:50.159Z,24.03
2018-07-16T06:54:15.613Z,24.06
2018-07-16T06:54:41.129Z,24.11
2018-07-16T06:55:06.639Z,24.17
2018-07-16T06:55:32.097Z,24.11
2018-07-16T06:55:57.599Z,24.3
2018-07-16T06:56:23.138Z,24.29
2018-07-16T06:56:48.604Z,24.4
2018-07-16T06:57:14.098Z,24.51
2018-07-16T06:57:39.585Z,24.47
2018-07-16T06:58:05.077Z,24.53
2018-07-16T06:58:30.553Z,24.53
2018-07-16T06:58:56.038Z,24.61
2018-07-16T06:59:21.515Z,24.66
2018-07-16T06:59:47.011Z,24.63
2018-07-16T07:00:12.484Z,24.7
2018-07-16T07:00:38.003Z,24.63
2018-07-16T07:01:03.472Z,24.73
2018-07-16T07:01:28.949Z,24.73
2018-07-16T07:01:54.443Z,24.77
2018-07-16T07:02:19.985Z,24.66
2018-07-16T07:02:45.490Z,24.86
2018-07-16T07:03:10.989Z,24.89
2018-07-16T07:03:36.494Z,24.92
2018-07-16T07:04:01.984Z,24.98
2018-07-16T07:04:27.544Z,24.98
2018-07-16T07:04:53.019Z,25.04
2018-07-16T07:05:18.567Z,25.1
2018-07-16T07:05:44.146Z,25.11
2018-07-16T07:06:09.643Z,25.11
2018-07-16T07:06:35.112Z,25.11
2018-07-16T07:07:00.667Z,25.06
2018-07-16T07:07:26.147Z,25.03
2018-07-16T07:07:51.646Z,25.22
2018-07-16T07:08:17.177Z,25.04
2018-07-16T07:08:42.652Z,25.07
2018-07-16T07:09:08.151Z,24.95
2018-07-16T07:09:33.660Z,24.89
2018-07-16T07:09:59.163Z,24.86
2018-07-16T07:10:24.650Z,24.86
2018-07-16T07:10:50.162Z,24.92
2018-07-16T07:11:15.675Z,24.73
2018-07-16T07:11:41.159Z,24.76
2018-07-16T07:12:06.654Z,24.73
2018-07-16T07:12:32.162Z,24.74
2018-07-16T07:12:57.656Z,24.73
2018-07-16T07:13:23.137Z,24.8
2018-07-16T07:13:48.691Z,24.78
2018-07-16T07:14:14.146Z,24.68
2018-07-16T07:14:39.663Z,24.78
2018-07-16T07:15:05.151Z,24.73
2018-07-16T07:15:30.664Z,24.78
2018-07-16T07:15:56.156Z,24.77
2018-07-16T07:16:21.647Z,24.81
2018-07-16T07:16:47.183Z,24.77
2018-07-16T07:17:12.663Z,24.8
2018-07-16T07:17:38.147Z,24.74
2018-07-16T07:18:03.717Z,24.84
2018-07-16T07:18:29.178Z,24.74
2018-07-16T07:18:54.689Z,24.86
2018-07-16T07:19:20.180Z,24.95
2018-07-16T07:19:45.673Z,24.91
2018-07-16T07:20:11.182Z,25.06
2018-07-16T07:20:36.686Z,25.11
2018-07-16T07:21:02.184Z,25.14
2018-07-16T07:21:27.689Z,25.25
2018-07-16T07:21:53.176Z,25.31
2018-07-16T07:22:18.668Z,25.33
2018-07-16T07:22:44.208Z,25.36
2018-07-16T07:23:09.719Z,25.41
2018-07-16T07:23:35.261Z,25.51
2018-07-16T07:24:00.757Z,25.51
2018-07-16T07:24:26.313Z,25.58
2018-07-16T07:24:51.766Z,25.66
2018-07-16T07:25:17.261Z,25.69
2018-07-16T07:25:42.742Z,25.73
2018-07-16T07:26:08.201Z,25.8
2018-07-16T07:26:33.705Z,25.88
2018-07-16T07:26:59.195Z,25.91
2018-07-16T07:27:24.675Z,25.98
2018-07-16T07:27:50.159Z,26.03
2018-07-16T07:28:15.617Z,26.06
2018-07-16T07:28:41.134Z,26.1
2018-07-16T07:29:06.642Z,26.16
2018-07-16T07:29:32.133Z,26.18
2018-07-16T07:29:57.641Z,26.22
2018-07-16T07:30:23.130Z,26.21
2018-07-16T07:30:48.623Z,26.23
2018-07-16T07:31:14.157Z,26.23
2018-07-16T07:31:39.625Z,26.23
2018-07-16T07:32:05.101Z,26.29
2018-07-16T07:32:30.641Z,26.26
2018-07-16T07:32:56.122Z,26.34
2018-07-16T07:33:21.648Z,26.23
2018-07-16T07:33:47.169Z,26.34
2018-07-16T07:34:12.653Z,26.34
2018-07-16T07:34:38.156Z,26.36
2018-07-16T07:35:03.697Z,26.33
2018-07-16T07:35:29.193Z,26.4
2018-07-16T07:35:54.704Z,26.36
2018-07-16T07:36:20.158Z,26.37
2018-07-16T07:36:45.661Z,26.26
2018-07-16T07:37:11.174Z,26.19
2018-07-16T07:37:36.672Z,26.1
2018-07-16T07:38:02.160Z,26.19
2018-07-16T07:38:27.677Z,26.1
2018-07-16T07:38:53.169Z,26.03
2018-07-16T07:39:18.676Z,26.05
2018-07-16T07:39:44.240Z,26
2018-07-16T07:40:09.856Z,26.02
2018-07-16T07:40:35.347Z,26
2018-07-16T07:41:01.055Z,25.93
2018-07-16T07:41:26.547Z,25.95
2018-07-16T07:41:52.035Z,26
2018-07-16T07:42:17.602Z,26.03
2018-07-16T07:42:43.047Z,25.88
2018-07-16T07:43:08.573Z,25.85
2018-07-16T07:43:34.031Z,25.83
2018-07-16T07:43:59.536Z,25.83
2018-07-16T07:44:25.014Z,25.91
2018-07-16T07:44:50.518Z,25.8
2018-07-16T07:45:16.020Z,25.9
2018-07-16T07:45:41.511Z,25.84
2018-07-16T07:46:07.031Z,25.91
2018-07-16T07:46:32.526Z,25.95
2018-07-16T07:46:58.020Z,25.95
2018-07-16T07:47:23.575Z,25.95
2018-07-16T07:47:49.062Z,26.1
2018-07-16T07:48:14.571Z,26.13
2018-07-16T07:48:40.061Z,26.06
2018-07-16T07:49:05.558Z,26.13
2018-07-16T07:49:31.033Z,26.05
2018-07-16T07:49:56.519Z,26.07
2018-07-16T07:50:22.037Z,26.18
2018-07-16T07:50:47.549Z,26.16
2018-07-16T07:51:13.017Z,26.21
2018-07-16T07:51:38.497Z,26.22
2018-07-16T07:52:04.000Z,26.22
2018-07-16T07:52:29.506Z,26.28
2018-07-16T07:52:55.015Z,26.25
2018-07-16T07:53:20.527Z,26.26
2018-07-16T07:53:46.048Z,26.22
2018-07-16T07:54:11.621Z,26.29
2018-07-16T07:54:37.273Z,26.29
2018-07-16T07:55:02.865Z,26.23
2018-07-16T07:55:28.061Z,26.29
2018-07-16T07:55:53.527Z,26.26
2018-07-16T07:56:19.046Z,26.28
2018-07-16T07:56:44.527Z,26.22
2018-07-16T07:57:10.031Z,26.26
2018-07-16T07:57:35.562Z,26.29
2018-07-16T07:58:01.052Z,26.34
2018-07-16T07:58:26.546Z,26.41
2018-07-16T07:58:52.055Z,26.34
2018-07-16T07:59:17.560Z,26.4
2018-07-16T07:59:43.057Z,26.34
2018-07-16T08:00:08.561Z,26.47
2018-07-16T08:00:34.072Z,26.55
2018-07-16T08:00:59.632Z,26.55
2018-07-16T08:01:25.247Z,26.52
2018-07-16T08:01:50.750Z,26.59
2018-07-16T08:02:16.239Z,26.48
2018-07-16T08:02:41.724Z,26.4
2018-07-16T08:03:07.198Z,26.45
2018-07-16T08:03:32.717Z,26.52
2018-07-16T08:03:58.206Z,26.47
2018-07-16T08:04:23.697Z,26.58
2018-07-16T08:04:49.194Z,26.52
2018-07-16T08:05:14.705Z,26.53
2018-07-16T08:05:40.199Z,26.55
2018-07-16T08:06:05.685Z,26.56
2018-07-16T08:06:31.187Z,26.56
2018-07-16T08:06:56.666Z,26.65
2018-07-16T08:07:22.141Z,26.62
2018-07-16T08:07:47.618Z,26.51
2018-07-16T08:08:13.125Z,26.62
2018-07-16T08:08:38.640Z,26.55
2018-07-16T08:09:04.143Z,26.59
2018-07-16T08:09:29.644Z,26.65
2018-07-16T08:09:55.211Z,26.7
2018-07-16T08:10:20.650Z,26.7
2018-07-16T08:10:46.159Z,26.78
2018-07-16T08:11:11.631Z,26.85
2018-07-16T08:11:37.158Z,26.89
2018-07-16T08:12:02.653Z,26.9
2018-07-16T08:12:28.322Z,26.93
2018-07-16T08:12:53.866Z,26.97
2018-07-16T08:13:19.388Z,27.03
2018-07-16T08:13:44.993Z,27.11
2018-07-16T08:14:10.452Z,27.11
2018-07-16T08:14:35.942Z,27.1
2018-07-16T08:15:01.432Z,27.02
2018-07-16T08:15:26.951Z,27.08
2018-07-16T08:15:52.421Z,26.96
2018-07-16T08:16:17.906Z,26.95
2018-07-16T08:16:43.410Z,26.97
2018-07-16T08:17:08.907Z,26.93
2018-07-16T08:17:34.395Z,26.95
2018-07-16T08:17:59.897Z,26.83
2018-07-16T08:18:25.386Z,26.84
2018-07-16T08:18:50.892Z,26.81
2018-07-16T08:19:16.374Z,26.84
2018-07-16T08:19:41.865Z,26.9
2018-07-16T08:20:07.376Z,26.84
2018-07-16T08:20:32.889Z,26.92
2018-07-16T08:20:58.400Z,26.85
2018-07-16T08:21:23.893Z,26.83
2018-07-16T08:21:49.396Z,26.96
2018-07-16T08:22:14.968Z,26.97
2018-07-16T08:22:40.495Z,26.97
2018-07-16T08:23:05.993Z,26.96
2018-07-16T08:23:31.499Z,26.95
2018-07-16T08:23:57.001Z,27.02
2018-07-16T08:24:22.509Z,27.02
2018-07-16T08:24:48.011Z,27.02
2018-07-16T08:25:13.482Z,27.11
2018-07-16T08:25:38.978Z,27.08
2018-07-16T08:26:04.447Z,27.03
2018-07-16T08:26:29.946Z,27.14
2018-07-16T08:26:55.416Z,27.18
2018-07-16T08:27:20.923Z,27.25
2018-07-16T08:27:46.419Z,27.22
2018-07-16T08:28:11.967Z,27.27
2018-07-16T08:28:37.460Z,27.21
2018-07-16T08:29:02.988Z,27.27
2018-07-16T08:29:28.456Z,27.27
2018-07-16T08:29:53.934Z,27.35
2018-07-16T08:30:19.449Z,27.32
2018-07-16T08:30:44.932Z,27.36
2018-07-16T08:31:10.452Z,27.37
2018-07-16T08:31:35.932Z,27.37
2018-07-16T08:32:01.434Z,27.42
2018-07-16T08:32:26.942Z,27.44
2018-07-16T08:32:52.429Z,27.4
2018-07-16T08:33:17.890Z,27.45
2018-07-16T08:33:43.378Z,27.44
2018-07-16T08:34:08.861Z,27.47
2018-07-16T08:34:34.354Z,27.48
2018-07-16T08:34:59.820Z,27.45
2018-07-16T08:35:25.337Z,27.52
2018-07-16T08:35:50.825Z,27.48
2018-07-16T08:36:16.349Z,27.49
2018-07-16T08:36:41.842Z,27.42
2018-07-16T08:37:07.360Z,27.42
2018-07-16T08:37:32.911Z,27.42
2018-07-16T08:37:58.415Z,27.4
2018-07-16T08:38:23.897Z,27.49
2018-07-16T08:38:49.379Z,27.45
2018-07-16T08:39:14.982Z,27.55
2018-07-16T08:39:40.377Z,27.55
2018-07-16T08:40:05.851Z,27.58
2018-07-16T08:40:31.320Z,27.54
2018-07-16T08:40:56.786Z,27.55
2018-07-16T08:41:22.275Z,27.54
2018-07-16T08:41:47.813Z,27.67
2018-07-16T08:42:13.315Z,27.7
2018-07-16T08:42:38.788Z,27.7
2018-07-16T08:43:04.289Z,27.67
2018-07-16T08:43:29.785Z,27.7
2018-07-16T08:43:55.319Z,27.63
2018-07-16T08:44:20.840Z,27.67
2018-07-16T08:44:46.345Z,27.6
2018-07-16T08:45:11.835Z,27.7
2018-07-16T08:45:37.303Z,27.65
2018-07-16T08:46:02.817Z,27.73
2018-07-16T08:46:28.313Z,27.73
2018-07-16T08:46:53.930Z,27.78
2018-07-16T08:47:19.574Z,27.83
2018-07-16T08:47:45.085Z,27.82
2018-07-16T08:48:10.607Z,27.83
2018-07-16T08:48:36.123Z,27.77
2018-07-16T08:49:01.649Z,27.85
2018-07-16T08:49:27.115Z,27.8
2018-07-16T08:49:52.600Z,27.86
2018-07-16T08:50:18.114Z,28
2018-07-16T08:50:43.615Z,28.01
2018-07-16T08:51:09.161Z,27.95
2018-07-16T08:51:34.687Z,27.93
2018-07-16T08:52:00.159Z,27.93
2018-07-16T08:52:25.669Z,28.01
2018-07-16T08:52:51.243Z,27.96
2018-07-16T08:53:49.751Z,27.98
2018-07-16T08:54:15.258Z,27.98
2018-07-16T08:54:40.771Z,28.01
2018-07-16T08:55:06.253Z,27.96
2018-07-16T08:55:31.724Z,27.96
2018-07-16T08:55:57.238Z,27.95
2018-07-16T08:56:22.746Z,27.95
2018-07-16T08:56:48.244Z,28.04
2018-07-16T08:57:13.696Z,27.98
2018-07-16T08:57:39.172Z,27.93
2018-07-16T08:58:04.652Z,27.92
2018-07-16T08:58:30.159Z,27.93
2018-07-16T08:58:55.661Z,28.05
2018-07-16T08:59:21.297Z,28
2018-07-16T08:59:46.699Z,28.02
2018-07-16T09:00:12.203Z,28.08
2018-07-16T09:00:37.666Z,28.14
2018-07-16T09:01:03.190Z,28.07
2018-07-16T09:02:11.908Z,28.12
2018-07-16T09:02:37.411Z,28.15
2018-07-16T09:03:02.895Z,28.07
2018-07-16T09:03:28.391Z,28.07
2018-07-16T09:03:53.859Z,28.08
2018-07-16T09:04:19.347Z,28.11
2018-07-16T09:04:44.916Z,28.08
2018-07-16T09:05:10.456Z,28.1
2018-07-16T09:05:35.897Z,27.96
2018-07-16T09:06:01.417Z,27.89
2018-07-16T09:06:26.934Z,27.9
2018-07-16T09:06:52.449Z,28.01
2018-07-16T09:07:17.997Z,27.93
2018-07-16T09:07:43.434Z,27.89
2018-07-16T09:08:08.910Z,27.8
2018-07-16T09:08:34.396Z,27.8
2018-07-16T09:08:59.921Z,27.8
2018-07-16T09:09:25.399Z,27.8
2018-07-16T09:09:50.917Z,27.92
2018-07-16T09:10:16.414Z,27.95
2018-07-16T09:10:41.979Z,27.92
2018-07-16T09:11:07.471Z,27.96
2018-07-16T09:11:32.927Z,27.95
2018-07-16T09:11:58.458Z,28
2018-07-16T09:12:23.970Z,28.02
2018-07-16T09:12:49.483Z,28.08
2018-07-16T09:13:15.084Z,28.08
2018-07-16T09:13:40.565Z,28.07
2018-07-16T09:14:05.997Z,28.04
2018-07-16T09:14:31.471Z,27.95
2018-07-16T09:14:56.973Z,27.95
2018-07-16T09:15:22.438Z,28.02
2018-07-16T09:15:47.963Z,28.04
2018-07-16T09:16:13.506Z,27.96
2018-07-16T09:16:38.965Z,27.95
2018-07-16T09:17:04.458Z,27.96
2018-07-16T09:17:29.984Z,27.87
2018-07-16T09:17:55.476Z,27.9
2018-07-16T09:18:20.937Z,27.8
2018-07-16T09:18:46.420Z,27.92
2018-07-16T09:19:11.897Z,27.95
2018-07-16T09:19:37.393Z,27.82
2018-07-16T09:20:02.885Z,27.9
2018-07-16T09:20:28.350Z,27.86
2018-07-16T09:20:53.831Z,27.89
2018-07-16T09:21:19.309Z,27.93
2018-07-16T09:21:44.769Z,27.89
2018-07-16T09:22:10.309Z,27.98
2018-07-16T09:22:35.793Z,27.95
2018-07-16T09:23:01.323Z,27.93
2018-07-16T09:23:26.837Z,27.96
2018-07-16T09:23:52.324Z,27.92
2018-07-16T09:24:17.819Z,28
2018-07-16T09:24:43.312Z,27.92
2018-07-16T09:25:08.797Z,27.89
2018-07-16T09:25:34.337Z,27.96
2018-07-16T09:25:59.783Z,27.95
2018-07-16T09:26:25.302Z,27.8
2018-07-16T09:26:50.812Z,27.87
2018-07-16T09:27:16.306Z,27.89
2018-07-16T09:27:41.834Z,27.89
2018-07-16T09:28:07.362Z,27.92
2018-07-16T09:28:32.858Z,27.86
2018-07-16T09:28:58.359Z,27.78
2018-07-16T09:29:23.860Z,27.83
2018-07-16T09:29:49.348Z,27.8
2018-07-16T09:30:14.849Z,27.85
2018-07-16T09:30:40.393Z,27.77
2018-07-16T09:31:05.942Z,27.78
2018-07-16T09:31:31.635Z,27.73
2018-07-16T09:31:57.253Z,27.71
2018-07-16T09:32:22.751Z,27.7
2018-07-16T09:32:48.323Z,27.7
2018-07-16T09:33:13.719Z,27.68
2018-07-16T09:33:39.193Z,27.74
2018-07-16T09:34:04.714Z,27.75
2018-07-16T09:34:30.205Z,27.77
2018-07-16T09:34:55.697Z,27.8
2018-07-16T09:35:21.228Z,27.96
2018-07-16T09:35:46.708Z,27.92
2018-07-16T09:36:12.208Z,27.98
2018-07-16T09:36:37.727Z,28.04
2018-07-16T09:37:03.245Z,28.08
2018-07-16T09:37:28.713Z,28.17
2018-07-16T09:37:54.191Z,28.17
2018-07-16T09:38:19.677Z,28.44
2018-07-16T09:38:45.171Z,28.3
2018-07-16T09:39:10.843Z,28.39
2018-07-16T09:39:36.196Z,28.37
2018-07-16T09:40:01.681Z,28.39
2018-07-16T09:40:27.173Z,28.33
2018-07-16T09:40:52.668Z,28.38
2018-07-16T09:41:18.290Z,28.44
2018-07-16T09:41:43.683Z,28.47
2018-07-16T09:42:09.153Z,28.47
2018-07-16T09:42:34.643Z,28.47
2018-07-16T09:43:00.108Z,28.39
2018-07-16T09:43:25.603Z,28.41